createdAt,value
2018-11-20T00:00:50.405Z,4.80
2018-11-20T00:03:38.702Z,5.77
2018-11-20T00:06:26.994Z,5.27
2018-11-20T00:09:15.244Z,4.73
2018-11-20T00:12:04.156Z,4.83
2018-11-20T00:14:42.357Z,5.87
2018-11-20T00:17:30.645Z,4.70
2018-11-20T00:20:18.896Z,5.20
2018-11-20T00:23:07.294Z,9.47
2018-11-20T00:25:55.795Z,5.40
2018-11-20T00:28:44.065Z,4.23
2018-11-20T00:31:32.325Z,5.53
2018-11-20T00:34:21.082Z,4.90
2018-11-20T00:37:09.345Z,5.23
2018-11-20T00:45:19.173Z,5.90
2018-11-20T00:48:18.436Z,5.67
2018-11-20T00:51:07.419Z,4.57
2018-11-20T00:57:10.622Z,7.23
2018-11-20T00:59:59.494Z,5.83
2018-11-20T01:08:12.817Z,5.37
2018-11-20T01:11:01.054Z,4.17
2018-11-20T01:13:49.369Z,4.70
2018-11-20T01:16:37.625Z,4.07
2018-11-20T01:19:26.031Z,4.60
2018-11-20T01:22:14.278Z,4.73
2018-11-20T01:25:02.735Z,4.20
2018-11-20T01:27:51.354Z,4.53
2018-11-20T01:30:39.627Z,4.33
2018-11-20T01:33:27.880Z,5.53
2018-11-20T01:36:16.165Z,4.40
2018-11-20T01:39:04.413Z,6.90
2018-11-20T01:41:52.654Z,4.70
2018-11-20T01:44:40.986Z,3.90
2018-11-20T01:47:29.290Z,5.67
2018-11-20T01:50:29.029Z,4.07
2018-11-20T01:53:17.368Z,4.40
2018-11-20T01:58:59.460Z,4.17
2018-11-20T02:01:48.195Z,5.60
2018-11-20T02:04:36.549Z,4.67
2018-11-20T02:07:27.187Z,5.40
2018-11-20T02:10:15.708Z,5.07
2018-11-20T02:13:41.863Z,4.27
2018-11-20T02:16:30.225Z,3.97
2018-11-20T02:19:18.512Z,4.27
2018-11-20T02:22:06.793Z,6.13
2018-11-20T02:24:55.039Z,4.10
2018-11-20T02:27:43.343Z,7.70
2018-11-20T02:30:31.592Z,4.17
2018-11-20T02:33:19.894Z,7.50
2018-11-20T02:36:01.601Z,6.37
2018-11-20T02:38:49.877Z,4.33
2018-11-20T02:41:38.186Z,4.57
2018-11-20T02:44:26.508Z,4.43
2018-11-20T02:47:15.143Z,5.60
2018-11-20T02:50:03.412Z,7.33
2018-11-20T02:52:51.677Z,5.73
2018-11-20T02:55:51.387Z,4.73
2018-11-20T02:58:39.685Z,4.47
2018-11-20T03:01:27.999Z,4.30
2018-11-20T03:04:16.325Z,6.83
2018-11-20T03:07:04.625Z,5.67
2018-11-20T03:09:52.872Z,4.47
2018-11-20T03:12:41.153Z,5.93
2018-11-20T03:15:29.415Z,4.70
2018-11-20T03:18:17.701Z,5.60
2018-11-20T03:21:05.949Z,6.13
2018-11-20T03:23:54.232Z,4.43
2018-11-20T03:26:42.487Z,5.43
2018-11-20T03:29:56.922Z,4.47
2018-11-20T03:32:45.175Z,7.90
2018-11-20T03:35:22.709Z,4.87
2018-11-20T03:38:10.953Z,5.50
2018-11-20T03:40:59.239Z,6.03
2018-11-20T03:43:47.495Z,6.13
2018-11-20T03:46:35.808Z,7.33
2018-11-20T03:49:24.970Z,5.23
2018-11-20T03:52:13.274Z,5.73
2018-11-20T03:55:01.531Z,6.73
2018-11-20T03:57:49.947Z,9.27
2018-11-20T04:00:38.249Z,5.90
2018-11-20T04:06:06.941Z,6.70
2018-11-20T04:08:55.195Z,6.23
2018-11-20T04:11:43.543Z,7.17
2018-11-20T04:14:31.819Z,5.13
2018-11-20T04:17:20.116Z,5.83
2018-11-20T04:20:08.467Z,5.07
2018-11-20T04:22:56.774Z,6.47
2018-11-20T04:28:38.956Z,6.50
2018-11-20T04:32:05.084Z,5.23
2018-11-20T04:34:53.413Z,4.63
2018-11-20T04:38:00.784Z,5.50
2018-11-20T04:40:49.091Z,5.60
2018-11-20T04:43:37.341Z,6.87
2018-11-20T04:46:25.675Z,7.13
2018-11-20T04:49:13.920Z,6.47
2018-11-20T04:52:02.406Z,6.10
2018-11-20T04:54:50.642Z,6.93
2018-11-20T04:57:39.033Z,5.07
2018-11-20T05:00:27.859Z,5.20
2018-11-20T05:05:57.053Z,5.43
2018-11-20T05:08:45.782Z,4.47
2018-11-20T05:11:34.171Z,5.23
2018-11-20T05:14:22.432Z,5.87
2018-11-20T05:17:10.723Z,6.83
2018-11-20T05:19:58.996Z,6.80
2018-11-20T05:36:02.348Z,6.80
2018-11-20T05:38:50.582Z,10.17
2018-11-20T05:41:39.039Z,8.07
2018-11-20T05:44:27.295Z,4.70
2018-11-20T05:47:15.608Z,6.63
2018-11-20T05:50:03.861Z,8.63
2018-11-20T05:52:52.169Z,10.07
2018-11-20T06:01:14.770Z,7.13
2018-11-20T06:04:03.171Z,7.70
2018-11-20T06:06:51.682Z,7.77
2018-11-20T06:09:40.102Z,7.80
2018-11-20T06:12:28.652Z,9.57
2018-11-20T06:15:16.890Z,8.20
2018-11-20T06:18:05.177Z,6.53
2018-11-20T06:20:53.436Z,7.87
2018-11-20T06:23:42.114Z,6.27
2018-11-20T06:26:30.384Z,5.63
2018-11-20T06:29:18.794Z,8.47
2018-11-20T06:31:59.786Z,7.00
2018-11-20T06:34:48.105Z,6.87
2018-11-20T06:37:36.305Z,13.90
2018-11-20T06:40:24.703Z,10.40
2018-11-20T06:43:13.052Z,14.67
2018-11-20T06:49:01.504Z,9.97
2018-11-20T06:51:49.809Z,7.23
2018-11-20T06:54:38.197Z,9.47
2018-11-20T06:57:45.380Z,7.83
2018-11-20T07:00:33.669Z,11.43
2018-11-20T07:06:16.215Z,12.77
2018-11-20T07:09:04.626Z,15.97
2018-11-20T07:14:40.032Z,11.83
2018-11-20T07:17:47.251Z,11.17
2018-11-20T07:20:35.545Z,10.43
2018-11-20T07:23:23.795Z,9.00
2018-11-20T07:26:12.075Z,9.13
2018-11-20T07:29:00.591Z,19.07
2018-11-20T07:31:48.925Z,10.83
2018-11-20T07:34:37.194Z,12.50
2018-11-20T07:37:25.739Z,11.30
2018-11-20T07:40:14.288Z,11.80
2018-11-20T07:43:03.577Z,8.83
2018-11-20T07:45:51.855Z,13.10
2018-11-20T07:48:40.337Z,12.67
2018-11-20T07:51:28.611Z,12.57
2018-11-20T07:54:16.911Z,10.73
2018-11-20T07:57:05.193Z,12.47
2018-11-20T07:59:53.720Z,12.83
2018-11-20T08:02:42.016Z,10.70
2018-11-20T08:05:30.773Z,10.83
2018-11-20T08:08:19.059Z,10.67
2018-11-20T08:11:07.357Z,8.37
2018-11-20T08:16:39.053Z,16.60
2018-11-20T08:19:20.983Z,14.33
2018-11-20T08:22:09.263Z,12.83
2018-11-20T08:24:57.571Z,18.67
2018-11-20T08:27:45.867Z,15.30
2018-11-20T08:30:34.131Z,12.63
2018-11-20T08:33:22.916Z,22.60
2018-11-20T08:36:09.362Z,18.33
2018-11-20T08:38:57.685Z,15.80
2018-11-20T08:41:45.943Z,9.03
2018-11-20T08:44:34.253Z,13.47
2018-11-20T08:47:22.510Z,13.37
2018-11-20T08:50:11.272Z,16.43
2018-11-20T08:52:59.569Z,13.07
2018-11-20T08:55:47.851Z,11.33
2018-11-20T08:58:36.096Z,12.40
2018-11-20T09:01:24.401Z,16.57
2018-11-20T09:04:12.672Z,17.23
2018-11-20T09:07:00.965Z,13.67
2018-11-20T09:09:49.262Z,14.67
2018-11-20T09:12:37.638Z,12.53
2018-11-20T09:15:37.486Z,13.90
2018-11-20T09:18:26.154Z,20.80
2018-11-20T09:21:14.883Z,13.80
2018-11-20T09:24:03.300Z,20.30
2018-11-20T09:26:51.551Z,12.93
2018-11-20T09:32:20.540Z,8.60
2018-11-20T09:35:08.869Z,11.37
2018-11-20T09:37:57.458Z,17.33
2018-11-20T09:41:23.591Z,10.40
2018-11-20T09:44:49.733Z,21.87
2018-11-20T09:47:38.056Z,13.47
2018-11-20T09:53:13.126Z,11.77
2018-11-20T09:56:01.414Z,15.20
2018-11-20T09:58:49.711Z,19.23
2018-11-20T10:01:37.975Z,20.17
2018-11-20T10:04:26.304Z,9.83
2018-11-20T10:07:14.607Z,15.37
2018-11-20T10:10:02.893Z,14.80
2018-11-20T10:12:51.146Z,12.63
2018-11-20T10:15:39.567Z,10.90
2018-11-20T10:18:28.059Z,12.80
2018-11-20T10:21:16.348Z,12.03
2018-11-20T10:24:04.719Z,14.67
2018-11-20T10:26:53.458Z,11.20
2018-11-20T10:30:01.563Z,10.10
2018-11-20T10:32:50.315Z,13.37
2018-11-20T10:35:38.655Z,8.10
2018-11-20T10:38:26.860Z,16.80
2018-11-20T10:41:15.111Z,13.00
2018-11-20T10:44:03.412Z,7.50
2018-11-20T10:46:51.710Z,14.07
2018-11-20T10:49:40.086Z,12.23
2018-11-20T10:52:20.882Z,12.43
2018-11-20T10:55:00.341Z,14.13
2018-11-20T10:57:48.586Z,14.17
2018-11-20T11:00:36.903Z,9.50
2018-11-20T11:03:25.976Z,8.93
2018-11-20T11:06:14.307Z,8.27
2018-11-20T11:09:21.550Z,8.70
2018-11-20T11:12:10.441Z,9.67
2018-11-20T11:14:58.613Z,9.63
2018-11-20T11:17:47.087Z,10.63
2018-11-20T11:20:35.597Z,6.87
2018-11-20T11:23:23.712Z,7.27
2018-11-20T11:29:05.621Z,8.00
2018-11-20T11:31:53.819Z,9.07
2018-11-20T11:34:42.138Z,6.30
2018-11-20T11:37:30.384Z,17.53
2018-11-20T11:40:18.735Z,12.07
2018-11-20T11:43:07.034Z,14.73
2018-11-20T11:48:36.207Z,9.47
2018-11-20T11:51:25.555Z,3.87
2018-11-20T11:54:13.203Z,2.97
2018-11-20T11:57:01.453Z,6.57
2018-11-20T11:59:49.771Z,1.97
2018-11-20T12:05:31.843Z,3.43
2018-11-20T12:08:20.492Z,6.67
2018-11-20T12:11:27.833Z,4.10
2018-11-20T12:14:16.083Z,6.93
2018-11-20T12:17:04.644Z,6.93
2018-11-20T12:19:52.895Z,7.90
2018-11-20T12:22:41.555Z,7.17
2018-11-20T12:25:29.818Z,4.73
2018-11-20T12:28:11.118Z,2.57
2018-11-20T12:30:59.460Z,3.33
2018-11-20T12:33:48.055Z,2.20
2018-11-20T12:36:36.321Z,2.10
2018-11-20T12:39:28.095Z,4.10
2018-11-20T12:42:04.893Z,1.87
2018-11-20T12:44:56.471Z,5.40
2018-11-20T12:47:43.067Z,1.90
2018-11-20T12:50:30.824Z,1.60
2018-11-20T12:56:14.005Z,6.63
2018-11-20T12:59:00.927Z,3.00
2018-11-20T13:04:30.974Z,3.70
2018-11-20T13:07:19.239Z,3.87
2018-11-20T13:10:26.426Z,4.17
2018-11-20T13:13:14.686Z,3.23
2018-11-20T13:15:53.584Z,3.40
2018-11-20T13:18:42.630Z,2.07
2018-11-20T13:21:31.168Z,3.30
2018-11-20T13:32:35.367Z,2.87
2018-11-20T13:35:23.823Z,2.03
2018-11-20T13:38:13.768Z,1.23
2018-11-20T13:41:39.931Z,1.43
2018-11-20T13:44:27.071Z,1.30
2018-11-20T13:47:15.396Z,2.10
2018-11-20T13:50:03.705Z,1.20
2018-11-20T13:52:52.703Z,2.17
2018-11-20T13:55:40.442Z,1.73
2018-11-20T13:58:28.687Z,4.80
2018-11-20T14:01:17.064Z,2.80
2018-11-20T14:04:05.352Z,3.00
2018-11-20T14:06:53.590Z,4.73
2018-11-20T14:09:42.099Z,7.83
2018-11-20T14:12:30.401Z,2.30
2018-11-20T14:18:12.216Z,2.00
2018-11-20T14:21:00.474Z,2.30
2018-11-20T14:23:48.798Z,1.23
2018-11-20T14:26:37.348Z,2.90
2018-11-20T14:29:25.747Z,2.77
2018-11-20T14:32:14.004Z,5.70
2018-11-20T14:35:02.311Z,3.57
2018-11-20T14:37:50.724Z,5.27
2018-11-20T14:46:20.369Z,6.27
2018-11-20T14:49:08.666Z,4.67
2018-11-20T14:51:56.951Z,4.73
2018-11-20T14:54:45.299Z,3.97
2018-11-20T14:57:33.630Z,1.73
2018-11-20T15:00:17.427Z,2.90
2018-11-20T15:03:05.778Z,6.30
2018-11-20T15:05:53.982Z,2.97
2018-11-20T15:08:42.280Z,1.77
2018-11-20T15:11:30.530Z,4.43
2018-11-20T15:14:18.847Z,1.80
2018-11-20T15:16:59.403Z,2.13
2018-11-20T15:19:47.752Z,5.13
2018-11-20T15:22:36.072Z,4.30
2018-11-20T15:25:24.444Z,3.13
2018-11-20T15:28:12.735Z,3.13
2018-11-20T15:31:01.046Z,6.53
2018-11-20T15:33:49.307Z,9.70
2018-11-20T15:36:37.665Z,5.47
2018-11-20T15:39:16.027Z,6.57
2018-11-20T15:42:06.931Z,6.87
2018-11-20T15:44:52.815Z,4.77
2018-11-20T15:47:41.138Z,8.17
2018-11-20T15:50:20.711Z,4.20
2018-11-20T15:53:08.998Z,3.23
2018-11-20T15:55:57.332Z,3.83
2018-11-20T15:58:45.683Z,2.50
2018-11-20T16:07:09.040Z,7.90
2018-11-20T16:09:57.303Z,7.07
2018-11-20T16:12:45.629Z,4.83
2018-11-20T16:15:33.897Z,6.20
2018-11-20T16:21:03.567Z,6.10
2018-11-20T16:23:51.819Z,2.60
2018-11-20T16:26:40.206Z,3.83
2018-11-20T16:29:28.526Z,6.27
2018-11-20T16:34:57.677Z,3.27
2018-11-20T16:37:45.951Z,3.90
2018-11-20T16:40:34.315Z,4.63
2018-11-20T16:43:41.488Z,4.87
2018-11-20T16:46:41.303Z,4.20
2018-11-20T16:49:29.569Z,4.20
2018-11-20T16:52:17.933Z,2.80
2018-11-20T16:55:06.345Z,3.53
2018-11-20T16:57:54.856Z,4.33
2018-11-20T17:00:43.159Z,5.50
2018-11-20T17:03:27.722Z,11.63
2018-11-20T17:06:08.010Z,5.50
2018-11-20T17:11:58.838Z,4.20
2018-11-20T17:14:57.297Z,3.10
2018-11-20T17:17:45.475Z,2.90
2018-11-20T17:23:15.201Z,4.90
2018-11-20T17:26:03.539Z,3.77
2018-11-20T17:31:33.264Z,2.87
2018-11-20T17:34:21.505Z,4.00
2018-11-20T17:37:09.796Z,3.33
2018-11-20T17:39:58.063Z,6.80
2018-11-20T17:42:46.393Z,3.93
2018-11-20T17:45:34.896Z,2.40
2018-11-20T17:48:34.441Z,4.63
2018-11-20T17:51:22.719Z,5.23
2018-11-20T17:54:10.997Z,3.30
2018-11-20T17:56:59.243Z,3.40
2018-11-20T18:02:20.967Z,8.33
2018-11-20T18:05:09.254Z,6.00
2018-11-20T18:07:57.613Z,5.33
2018-11-20T18:10:45.915Z,4.70
2018-11-20T18:13:34.226Z,3.13
2018-11-20T18:16:22.545Z,3.77
2018-11-20T18:19:10.894Z,4.00
2018-11-20T18:22:05.744Z,6.20
2018-11-20T18:24:54.035Z,4.43
2018-11-20T18:27:42.332Z,2.77
2018-11-20T18:30:31.489Z,2.77
2018-11-20T18:33:14.495Z,3.80
2018-11-20T18:36:21.683Z,8.10
2018-11-20T18:42:05.131Z,4.20
2018-11-20T18:44:45.630Z,4.73
2018-11-20T18:47:34.051Z,3.00
2018-11-20T18:50:22.518Z,3.63
2018-11-20T18:55:51.957Z,2.60
2018-11-20T18:58:59.142Z,2.70
2018-11-20T19:01:47.440Z,5.03
2018-11-20T19:04:55.421Z,4.63
2018-11-20T19:07:43.795Z,2.63
2018-11-20T19:13:26.245Z,4.57
2018-11-20T19:16:14.552Z,3.90
2018-11-20T19:19:03.093Z,3.73
2018-11-20T19:21:51.501Z,6.27
2018-11-20T19:24:40.529Z,4.60
2018-11-20T19:27:28.854Z,3.20
2018-11-20T19:30:17.205Z,4.40
2018-11-20T19:33:06.085Z,4.37
2018-11-20T19:35:46.998Z,4.67
2018-11-20T19:38:35.242Z,4.73
2018-11-20T19:41:23.697Z,4.73
2018-11-20T19:44:12.101Z,3.33
2018-11-20T19:47:00.600Z,6.53
2018-11-20T19:49:49.815Z,3.80
2018-11-20T19:52:38.350Z,4.70
2018-11-20T19:55:26.714Z,3.60
2018-11-20T20:00:55.943Z,5.83
2018-11-20T20:03:44.255Z,3.10
2018-11-20T20:06:32.742Z,6.33
2018-11-20T20:09:30.518Z,4.77
2018-11-20T20:12:06.580Z,5.10
2018-11-20T20:14:54.886Z,4.30
2018-11-20T20:17:43.209Z,3.10
2018-11-20T20:20:34.660Z,3.73
2018-11-20T20:23:23.097Z,5.30
2018-11-20T20:26:11.303Z,4.03
2018-11-20T20:28:59.628Z,3.93
2018-11-20T20:31:47.916Z,3.47
2018-11-20T20:34:36.275Z,4.40
2018-11-20T20:37:24.593Z,3.60
2018-11-20T20:42:53.598Z,6.23
2018-11-20T20:45:41.884Z,5.40
2018-11-20T20:48:30.416Z,3.77
2018-11-20T20:51:18.529Z,4.40
2018-11-20T20:56:47.302Z,4.47
2018-11-20T20:59:47.124Z,3.43
2018-11-20T21:02:35.433Z,3.70
2018-11-20T21:05:24.735Z,4.70
2018-11-20T21:08:13.251Z,4.30
2018-11-20T21:11:01.637Z,4.47
2018-11-20T21:13:50.617Z,4.93
2018-11-20T21:19:32.328Z,3.90
2018-11-20T21:22:20.584Z,6.10
2018-11-20T21:27:49.691Z,3.53
2018-11-20T21:30:43.216Z,3.07
2018-11-20T21:33:26.575Z,3.67
2018-11-20T21:36:15.202Z,2.50
2018-11-20T21:39:03.459Z,8.43
2018-11-20T21:41:51.731Z,4.53
2018-11-20T21:44:40.133Z,4.20
2018-11-20T21:47:28.410Z,5.43
2018-11-20T21:50:16.737Z,3.33
2018-11-20T21:53:05.009Z,2.03
2018-11-20T21:55:53.317Z,2.10
2018-11-20T21:58:29.882Z,2.50
2018-11-20T22:01:21.001Z,6.93
2018-11-20T22:04:09.243Z,3.53
2018-11-20T22:06:57.745Z,3.50
2018-11-20T22:09:46.117Z,3.33
2018-11-20T22:12:34.415Z,4.13
2018-11-20T22:15:22.666Z,2.93
2018-11-20T22:18:11.031Z,3.10
2018-11-20T22:20:59.280Z,2.90
2018-11-20T22:23:47.560Z,2.27
2018-11-20T22:26:35.824Z,1.87
2018-11-20T22:29:24.235Z,2.50
2018-11-20T22:32:12.499Z,3.33
2018-11-20T22:35:01.061Z,3.97
2018-11-20T22:37:49.332Z,2.30
2018-11-20T22:40:37.635Z,2.10
2018-11-20T22:46:19.448Z,2.33
2018-11-20T22:49:07.928Z,1.93
2018-11-20T22:51:56.287Z,2.80
2018-11-20T22:54:44.539Z,3.23
2018-11-20T22:57:32.842Z,2.33
2018-11-20T23:00:21.110Z,3.00
2018-11-20T23:03:09.397Z,3.30
2018-11-20T23:05:55.763Z,2.33
2018-11-20T23:08:25.434Z,2.23
2018-11-20T23:10:55.057Z,1.83
2018-11-20T23:13:24.719Z,1.80
2018-11-20T23:18:48.098Z,1.63
2018-11-20T23:21:29.762Z,4.10
2018-11-20T23:23:59.385Z,2.23
2018-11-20T23:26:29.004Z,3.17
2018-11-20T23:28:58.646Z,1.80
2018-11-20T23:31:28.746Z,2.63
2018-11-20T23:33:58.285Z,2.03
2018-11-20T23:36:27.938Z,1.80
2018-11-20T23:38:57.612Z,3.53
2018-11-20T23:41:27.318Z,2.50
2018-11-20T23:44:15.855Z,2.47
2018-11-20T23:46:45.481Z,1.30
2018-11-20T23:49:15.537Z,2.03
2018-11-20T23:51:45.174Z,1.60
2018-11-20T23:54:33.418Z,1.33
2018-11-20T23:57:03.070Z,2.47
2018-11-20T23:59:51.314Z,1.87
